Terminal Aerodrome Forecast
Issued by NWS Shreveport, LA

Home | Current Version | Previous Version | Text Only | Print | Product List | Glossary On
Versions: 1 2 3 4 5 6 7 8 9 10 11 12 13 14 15 16 17
142
FTUS44 KSHV 302320
TAFELD
TAF
KELD 302320Z 3100/3124 VRB06KT P6SM -SHRA VCTS SCT050CB BKN120
     FM310300 VRB03KT P6SM SCT050 SCT150 BKN250
      TEMPO 3110/3113 2SM BR
     FM311500 17003KT P6SM SCT030 SCT150 SCT250=

USA.gov is the U.S. government's official web portal to all federal, state and local government web resources and services.